sensor_id;sensor_type;location;lat;lon;timestamp;P1;durP1;ratioP1;P2;durP2;ratioP2
773;SDS011;370;48.810;9.150;2022-07-06T00:00:05;1.27;;;1.17;;
773;SDS011;370;48.810;9.150;2022-07-06T00:02:33;4.53;;;1.97;;
773;SDS011;370;48.810;9.150;2022-07-06T00:04:59;1.93;;;1.90;;
773;SDS011;370;48.810;9.150;2022-07-06T00:07:26;1.80;;;1.70;;
773;SDS011;370;48.810;9.150;2022-07-06T00:09:54;1.40;;;1.20;;
773;SDS011;370;48.810;9.150;2022-07-06T00:12:23;2.10;;;1.57;;
773;SDS011;370;48.810;9.150;2022-07-06T00:14:49;1.77;;;1.50;;
773;SDS011;370;48.810;9.150;2022-07-06T00:17:16;4.57;;;2.00;;
773;SDS011;370;48.810;9.150;2022-07-06T00:19:43;2.50;;;1.80;;
773;SDS011;370;48.810;9.150;2022-07-06T00:22:10;1.30;;;1.20;;
773;SDS011;370;48.810;9.150;2022-07-06T00:24:36;2.80;;;1.70;;
773;SDS011;370;48.810;9.150;2022-07-06T00:27:05;5.03;;;2.13;;
773;SDS011;370;48.810;9.150;2022-07-06T00:29:31;2.77;;;1.57;;
773;SDS011;370;48.810;9.150;2022-07-06T00:31:58;1.77;;;1.70;;
773;SDS011;370;48.810;9.150;2022-07-06T00:34:25;1.60;;;1.50;;
773;SDS011;370;48.810;9.150;2022-07-06T00:36:52;4.27;;;1.90;;
773;SDS011;370;48.810;9.150;2022-07-06T00:39:18;2.17;;;1.80;;
773;SDS011;370;48.810;9.150;2022-07-06T00:41:46;3.57;;;1.80;;
773;SDS011;370;48.810;9.150;2022-07-06T00:44:15;4.10;;;1.70;;
773;SDS011;370;48.810;9.150;2022-07-06T00:46:41;1.90;;;1.50;;
773;SDS011;370;48.810;9.150;2022-07-06T00:49:08;3.13;;;1.60;;
773;SDS011;370;48.810;9.150;2022-07-06T00:51:55;1.73;;;1.63;;
773;SDS011;370;48.810;9.150;2022-07-06T00:54:23;1.77;;;1.50;;
773;SDS011;370;48.810;9.150;2022-07-06T00:56:50;2.70;;;2.10;;
773;SDS011;370;48.810;9.150;2022-07-06T00:59:19;1.77;;;1.53;;
773;SDS011;370;48.810;9.150;2022-07-06T01:01:46;1.83;;;1.73;;
773;SDS011;370;48.810;9.150;2022-07-06T01:04:13;2.20;;;1.70;;
773;SDS011;370;48.810;9.150;2022-07-06T01:06:39;2.50;;;1.90;;
773;SDS011;370;48.810;9.150;2022-07-06T01:09:07;6.40;;;1.80;;
773;SDS011;370;48.810;9.150;2022-07-06T01:11:33;1.60;;;1.37;;
773;SDS011;370;48.810;9.150;2022-07-06T01:14:00;1.70;;;1.60;;
773;SDS011;370;48.810;9.150;2022-07-06T01:16:29;3.30;;;1.97;;
773;SDS011;370;48.810;9.150;2022-07-06T01:18:56;2.53;;;1.60;;
773;SDS011;370;48.810;9.150;2022-07-06T01:21:24;4.83;;;1.80;;
773;SDS011;370;48.810;9.150;2022-07-06T01:23:51;2.20;;;1.80;;
773;SDS011;370;48.810;9.150;2022-07-06T01:26:19;2.43;;;1.70;;
773;SDS011;370;48.810;9.150;2022-07-06T01:28:47;2.60;;;1.80;;
773;SDS011;370;48.810;9.150;2022-07-06T01:31:17;1.67;;;1.57;;
773;SDS011;370;48.810;9.150;2022-07-06T01:33:45;3.57;;;1.57;;
773;SDS011;370;48.810;9.150;2022-07-06T01:36:12;1.90;;;1.57;;
773;SDS011;370;48.810;9.150;2022-07-06T01:38:47;4.10;;;1.93;;
773;SDS011;370;48.810;9.150;2022-07-06T01:41:15;1.30;;;1.17;;
773;SDS011;370;48.810;9.150;2022-07-06T01:43:43;3.47;;;1.90;;
773;SDS011;370;48.810;9.150;2022-07-06T01:46:10;4.07;;;2.23;;
773;SDS011;370;48.810;9.150;2022-07-06T01:48:37;2.77;;;1.63;;
773;SDS011;370;48.810;9.150;2022-07-06T01:51:04;2.63;;;1.73;;
773;SDS011;370;48.810;9.150;2022-07-06T01:53:31;4.40;;;1.60;;
773;SDS011;370;48.810;9.150;2022-07-06T01:55:59;9.80;;;1.67;;
773;SDS011;370;48.810;9.150;2022-07-06T01:58:26;1.40;;;1.30;;
773;SDS011;370;48.810;9.150;2022-07-06T02:00:53;1.30;;;1.20;;
773;SDS011;370;48.810;9.150;2022-07-06T02:03:20;3.53;;;1.73;;
773;SDS011;370;48.810;9.150;2022-07-06T02:05:47;8.40;;;1.70;;
773;SDS011;370;48.810;9.150;2022-07-06T02:08:14;1.93;;;1.53;;
773;SDS011;370;48.810;9.150;2022-07-06T02:10:40;1.47;;;1.37;;
773;SDS011;370;48.810;9.150;2022-07-06T02:13:08;1.83;;;1.73;;
773;SDS011;370;48.810;9.150;2022-07-06T02:15:35;1.33;;;1.23;;
773;SDS011;370;48.810;9.150;2022-07-06T02:18:02;3.23;;;1.50;;
773;SDS011;370;48.810;9.150;2022-07-06T02:20:29;1.40;;;1.30;;
773;SDS011;370;48.810;9.150;2022-07-06T02:22:56;1.77;;;1.60;;
773;SDS011;370;48.810;9.150;2022-07-06T02:25:23;1.57;;;1.50;;
773;SDS011;370;48.810;9.150;2022-07-06T02:27:50;2.20;;;1.67;;
773;SDS011;370;48.810;9.150;2022-07-06T02:30:18;3.03;;;1.40;;
773;SDS011;370;48.810;9.150;2022-07-06T02:32:45;5.30;;;2.23;;
773;SDS011;370;48.810;9.150;2022-07-06T02:35:12;2.10;;;1.53;;
773;SDS011;370;48.810;9.150;2022-07-06T02:37:39;2.00;;;1.43;;
773;SDS011;370;48.810;9.150;2022-07-06T02:40:06;2.13;;;1.93;;
773;SDS011;370;48.810;9.150;2022-07-06T02:42:33;2.50;;;1.80;;
773;SDS011;370;48.810;9.150;2022-07-06T02:45:00;14.33;;;2.07;;
773;SDS011;370;48.810;9.150;2022-07-06T02:47:29;1.60;;;1.53;;
773;SDS011;370;48.810;9.150;2022-07-06T02:49:56;1.63;;;1.60;;
773;SDS011;370;48.810;9.150;2022-07-06T02:52:23;6.90;;;1.90;;
773;SDS011;370;48.810;9.150;2022-07-06T02:54:49;3.37;;;1.57;;
773;SDS011;370;48.810;9.150;2022-07-06T02:57:16;4.20;;;1.70;;
773;SDS011;370;48.810;9.150;2022-07-06T02:59:43;1.53;;;1.40;;
773;SDS011;370;48.810;9.150;2022-07-06T03:02:11;3.50;;;1.40;;
773;SDS011;370;48.810;9.150;2022-07-06T03:04:39;2.57;;;1.90;;
773;SDS011;370;48.810;9.150;2022-07-06T03:07:06;2.50;;;1.70;;
773;SDS011;370;48.810;9.150;2022-07-06T03:09:33;2.10;;;1.70;;
773;SDS011;370;48.810;9.150;2022-07-06T03:12:00;2.07;;;1.87;;
773;SDS011;370;48.810;9.150;2022-07-06T03:14:26;4.60;;;1.60;;
773;SDS011;370;48.810;9.150;2022-07-06T03:16:54;1.87;;;1.40;;
773;SDS011;370;48.810;9.150;2022-07-06T03:19:21;3.03;;;1.90;;
773;SDS011;370;48.810;9.150;2022-07-06T03:21:49;1.90;;;1.47;;
773;SDS011;370;48.810;9.150;2022-07-06T03:24:16;2.00;;;1.60;;
773;SDS011;370;48.810;9.150;2022-07-06T03:26:42;5.22;;;1.92;;
773;SDS011;370;48.810;9.150;2022-07-06T03:29:09;4.13;;;1.60;;
773;SDS011;370;48.810;9.150;2022-07-06T03:31:36;2.85;;;1.65;;
773;SDS011;370;48.810;9.150;2022-07-06T03:34:03;2.15;;;1.90;;
773;SDS011;370;48.810;9.150;2022-07-06T03:36:29;2.80;;;1.90;;
773;SDS011;370;48.810;9.150;2022-07-06T03:38:58;1.92;;;1.52;;
773;SDS011;370;48.810;9.150;2022-07-06T03:41:24;2.00;;;1.80;;
773;SDS011;370;48.810;9.150;2022-07-06T03:43:51;3.83;;;1.90;;
773;SDS011;370;48.810;9.150;2022-07-06T03:46:18;1.95;;;1.55;;
773;SDS011;370;48.810;9.150;2022-07-06T03:48:45;8.60;;;2.10;;
773;SDS011;370;48.810;9.150;2022-07-06T03:51:12;1.57;;;1.40;;
773;SDS011;370;48.810;9.150;2022-07-06T03:53:38;2.37;;;1.57;;
773;SDS011;370;48.810;9.150;2022-07-06T03:56:07;3.83;;;2.33;;
773;SDS011;370;48.810;9.150;2022-07-06T03:58:51;2.20;;;2.00;;
773;SDS011;370;48.810;9.150;2022-07-06T04:01:18;3.57;;;2.00;;
773;SDS011;370;48.810;9.150;2022-07-06T04:03:45;6.40;;;2.10;;
773;SDS011;370;48.810;9.150;2022-07-06T04:06:12;2.17;;;1.80;;
773;SDS011;370;48.810;9.150;2022-07-06T04:08:39;2.20;;;2.00;;
773;SDS011;370;48.810;9.150;2022-07-06T04:11:07;2.77;;;1.80;;
773;SDS011;370;48.810;9.150;2022-07-06T04:13:34;2.60;;;1.83;;
773;SDS011;370;48.810;9.150;2022-07-06T04:16:02;5.97;;;1.93;;
773;SDS011;370;48.810;9.150;2022-07-06T04:18:29;5.10;;;2.10;;
773;SDS011;370;48.810;9.150;2022-07-06T04:20:56;2.20;;;1.70;;
773;SDS011;370;48.810;9.150;2022-07-06T04:23:23;4.53;;;2.13;;
773;SDS011;370;48.810;9.150;2022-07-06T04:25:50;4.13;;;1.83;;
773;SDS011;370;48.810;9.150;2022-07-06T04:28:18;1.77;;;1.70;;
773;SDS011;370;48.810;9.150;2022-07-06T04:30:45;2.70;;;2.00;;
773;SDS011;370;48.810;9.150;2022-07-06T04:33:12;2.67;;;2.40;;
773;SDS011;370;48.810;9.150;2022-07-06T04:35:39;3.83;;;2.10;;
773;SDS011;370;48.810;9.150;2022-07-06T04:38:06;2.27;;;2.07;;
773;SDS011;370;48.810;9.150;2022-07-06T04:40:33;4.83;;;2.93;;
773;SDS011;370;48.810;9.150;2022-07-06T04:42:59;5.43;;;2.20;;
773;SDS011;370;48.810;9.150;2022-07-06T04:45:28;2.40;;;2.07;;
773;SDS011;370;48.810;9.150;2022-07-06T04:47:54;3.50;;;2.30;;
773;SDS011;370;48.810;9.150;2022-07-06T04:50:21;3.27;;;2.03;;
773;SDS011;370;48.810;9.150;2022-07-06T04:52:48;5.00;;;2.43;;
773;SDS011;370;48.810;9.150;2022-07-06T04:55:15;2.83;;;2.10;;
773;SDS011;370;48.810;9.150;2022-07-06T04:57:42;2.70;;;1.90;;
773;SDS011;370;48.810;9.150;2022-07-06T05:00:09;3.30;;;2.30;;
773;SDS011;370;48.810;9.150;2022-07-06T05:02:38;2.83;;;1.83;;
773;SDS011;370;48.810;9.150;2022-07-06T05:05:05;2.53;;;2.33;;
773;SDS011;370;48.810;9.150;2022-07-06T05:07:34;5.40;;;2.27;;
773;SDS011;370;48.810;9.150;2022-07-06T05:10:05;2.93;;;2.17;;
773;SDS011;370;48.810;9.150;2022-07-06T05:12:32;5.90;;;2.30;;
773;SDS011;370;48.810;9.150;2022-07-06T05:14:59;3.47;;;2.53;;
773;SDS011;370;48.810;9.150;2022-07-06T05:17:26;6.10;;;2.47;;
773;SDS011;370;48.810;9.150;2022-07-06T05:19:54;3.50;;;1.83;;
773;SDS011;370;48.810;9.150;2022-07-06T05:22:21;2.70;;;2.40;;
773;SDS011;370;48.810;9.150;2022-07-06T05:24:49;3.20;;;2.07;;
773;SDS011;370;48.810;9.150;2022-07-06T05:27:16;3.17;;;2.23;;
773;SDS011;370;48.810;9.150;2022-07-06T05:29:42;2.80;;;2.27;;
773;SDS011;370;48.810;9.150;2022-07-06T05:32:09;2.17;;;1.70;;
773;SDS011;370;48.810;9.150;2022-07-06T05:34:36;2.63;;;2.40;;
773;SDS011;370;48.810;9.150;2022-07-06T05:37:04;8.50;;;2.83;;
773;SDS011;370;48.810;9.150;2022-07-06T05:39:31;2.63;;;2.30;;
773;SDS011;370;48.810;9.150;2022-07-06T05:41:58;3.30;;;2.30;;
773;SDS011;370;48.810;9.150;2022-07-06T05:44:25;4.73;;;2.43;;
773;SDS011;370;48.810;9.150;2022-07-06T05:46:51;4.53;;;2.53;;
773;SDS011;370;48.810;9.150;2022-07-06T05:49:39;1.93;;;1.87;;
773;SDS011;370;48.810;9.150;2022-07-06T05:52:25;3.90;;;2.50;;
773;SDS011;370;48.810;9.150;2022-07-06T05:54:52;4.47;;;2.30;;
773;SDS011;370;48.810;9.150;2022-07-06T05:57:19;5.33;;;2.00;;
773;SDS011;370;48.810;9.150;2022-07-06T05:59:46;2.73;;;2.03;;
773;SDS011;370;48.810;9.150;2022-07-06T06:02:12;2.90;;;2.40;;
773;SDS011;370;48.810;9.150;2022-07-06T06:04:39;3.50;;;2.30;;
773;SDS011;370;48.810;9.150;2022-07-06T06:07:06;4.90;;;2.27;;
773;SDS011;370;48.810;9.150;2022-07-06T06:09:34;2.70;;;2.20;;
773;SDS011;370;48.810;9.150;2022-07-06T06:12:01;4.30;;;2.47;;
773;SDS011;370;48.810;9.150;2022-07-06T06:14:28;2.20;;;1.80;;
773;SDS011;370;48.810;9.150;2022-07-06T06:16:55;3.07;;;2.30;;
773;SDS011;370;48.810;9.150;2022-07-06T06:19:22;3.90;;;2.47;;
773;SDS011;370;48.810;9.150;2022-07-06T06:21:48;6.43;;;1.60;;
773;SDS011;370;48.810;9.150;2022-07-06T06:24:16;2.80;;;1.90;;
773;SDS011;370;48.810;9.150;2022-07-06T06:26:44;7.40;;;2.37;;
773;SDS011;370;48.810;9.150;2022-07-06T06:29:11;2.50;;;2.00;;
773;SDS011;370;48.810;9.150;2022-07-06T06:31:38;2.97;;;2.53;;
773;SDS011;370;48.810;9.150;2022-07-06T06:34:05;1.87;;;1.80;;
773;SDS011;370;48.810;9.150;2022-07-06T06:36:31;6.17;;;2.37;;
773;SDS011;370;48.810;9.150;2022-07-06T06:38:58;4.00;;;2.33;;
773;SDS011;370;48.810;9.150;2022-07-06T06:41:26;5.43;;;2.20;;
773;SDS011;370;48.810;9.150;2022-07-06T06:43:55;6.70;;;2.60;;
773;SDS011;370;48.810;9.150;2022-07-06T06:46:21;7.90;;;2.23;;
773;SDS011;370;48.810;9.150;2022-07-06T06:48:48;10.10;;;2.30;;
773;SDS011;370;48.810;9.150;2022-07-06T06:51:15;6.30;;;2.90;;
773;SDS011;370;48.810;9.150;2022-07-06T06:53:42;8.10;;;2.93;;
773;SDS011;370;48.810;9.150;2022-07-06T06:56:08;2.40;;;1.80;;
773;SDS011;370;48.810;9.150;2022-07-06T06:58:35;4.40;;;2.10;;
773;SDS011;370;48.810;9.150;2022-07-06T07:01:03;2.23;;;2.03;;
773;SDS011;370;48.810;9.150;2022-07-06T07:03:32;3.00;;;2.10;;
773;SDS011;370;48.810;9.150;2022-07-06T07:06:00;3.20;;;1.73;;
773;SDS011;370;48.810;9.150;2022-07-06T07:08:27;2.30;;;2.10;;
773;SDS011;370;48.810;9.150;2022-07-06T07:10:54;4.10;;;2.23;;
773;SDS011;370;48.810;9.150;2022-07-06T07:13:21;2.23;;;2.03;;
773;SDS011;370;48.810;9.150;2022-07-06T07:15:48;3.33;;;1.93;;
773;SDS011;370;48.810;9.150;2022-07-06T07:18:16;4.87;;;2.10;;
773;SDS011;370;48.810;9.150;2022-07-06T07:20:43;3.07;;;2.17;;
773;SDS011;370;48.810;9.150;2022-07-06T07:23:09;5.47;;;1.80;;
773;SDS011;370;48.810;9.150;2022-07-06T07:25:36;2.57;;;2.20;;
773;SDS011;370;48.810;9.150;2022-07-06T07:28:03;5.07;;;2.27;;
773;SDS011;370;48.810;9.150;2022-07-06T07:30:30;10.63;;;2.07;;
773;SDS011;370;48.810;9.150;2022-07-06T07:32:57;5.50;;;2.00;;
773;SDS011;370;48.810;9.150;2022-07-06T07:35:27;2.40;;;1.80;;
773;SDS011;370;48.810;9.150;2022-07-06T07:37:54;2.20;;;1.80;;
773;SDS011;370;48.810;9.150;2022-07-06T07:40:21;2.37;;;2.07;;
773;SDS011;370;48.810;9.150;2022-07-06T07:42:47;3.87;;;2.10;;
773;SDS011;370;48.810;9.150;2022-07-06T07:45:14;4.53;;;2.10;;
773;SDS011;370;48.810;9.150;2022-07-06T07:47:41;1.87;;;1.60;;
773;SDS011;370;48.810;9.150;2022-07-06T07:50:12;5.47;;;1.90;;
773;SDS011;370;48.810;9.150;2022-07-06T07:52:42;10.53;;;2.90;;
773;SDS011;370;48.810;9.150;2022-07-06T07:55:09;4.13;;;2.53;;
773;SDS011;370;48.810;9.150;2022-07-06T07:57:36;3.00;;;2.20;;
773;SDS011;370;48.810;9.150;2022-07-06T08:00:03;3.30;;;1.90;;
773;SDS011;370;48.810;9.150;2022-07-06T08:02:31;3.13;;;2.10;;
773;SDS011;370;48.810;9.150;2022-07-06T08:04:57;4.83;;;2.53;;
773;SDS011;370;48.810;9.150;2022-07-06T08:07:24;2.53;;;2.03;;
773;SDS011;370;48.810;9.150;2022-07-06T08:09:52;2.20;;;1.90;;
773;SDS011;370;48.810;9.150;2022-07-06T08:12:19;6.43;;;2.23;;
773;SDS011;370;48.810;9.150;2022-07-06T08:14:46;8.13;;;2.20;;
773;SDS011;370;48.810;9.150;2022-07-06T08:17:13;6.80;;;2.10;;
773;SDS011;370;48.810;9.150;2022-07-06T08:19:40;4.30;;;2.40;;
773;SDS011;370;48.810;9.150;2022-07-06T08:22:07;2.77;;;2.10;;
773;SDS011;370;48.810;9.150;2022-07-06T08:24:34;13.00;;;2.63;;
773;SDS011;370;48.810;9.150;2022-07-06T08:27:03;5.37;;;2.37;;
773;SDS011;370;48.810;9.150;2022-07-06T08:29:30;5.33;;;1.80;;
773;SDS011;370;48.810;9.150;2022-07-06T08:31:57;6.60;;;2.40;;
773;SDS011;370;48.810;9.150;2022-07-06T08:34:24;4.33;;;2.50;;
773;SDS011;370;48.810;9.150;2022-07-06T08:36:51;3.40;;;1.87;;
773;SDS011;370;48.810;9.150;2022-07-06T08:39:18;4.10;;;2.13;;
773;SDS011;370;48.810;9.150;2022-07-06T08:41:45;7.70;;;2.40;;
773;SDS011;370;48.810;9.150;2022-07-06T08:44:16;4.17;;;2.33;;
773;SDS011;370;48.810;9.150;2022-07-06T08:50:04;5.10;;;2.13;;
773;SDS011;370;48.810;9.150;2022-07-06T08:52:31;8.10;;;1.80;;
773;SDS011;370;48.810;9.150;2022-07-06T08:54:58;6.53;;;2.37;;
773;SDS011;370;48.810;9.150;2022-07-06T08:57:26;3.20;;;2.03;;
773;SDS011;370;48.810;9.150;2022-07-06T08:59:54;2.00;;;1.90;;
773;SDS011;370;48.810;9.150;2022-07-06T09:02:22;12.23;;;2.70;;
773;SDS011;370;48.810;9.150;2022-07-06T09:04:51;4.23;;;2.10;;
773;SDS011;370;48.810;9.150;2022-07-06T09:07:22;3.40;;;2.40;;
773;SDS011;370;48.810;9.150;2022-07-06T09:09:53;4.00;;;2.30;;
773;SDS011;370;48.810;9.150;2022-07-06T09:12:21;2.40;;;2.20;;
773;SDS011;370;48.810;9.150;2022-07-06T09:14:48;3.27;;;2.67;;
773;SDS011;370;48.810;9.150;2022-07-06T09:17:17;2.70;;;2.27;;
773;SDS011;370;48.810;9.150;2022-07-06T09:19:44;4.60;;;2.50;;
773;SDS011;370;48.810;9.150;2022-07-06T09:22:13;5.07;;;2.40;;
773;SDS011;370;48.810;9.150;2022-07-06T09:24:51;2.20;;;2.00;;
773;SDS011;370;48.810;9.150;2022-07-06T09:27:18;4.20;;;2.20;;
773;SDS011;370;48.810;9.150;2022-07-06T09:29:45;14.93;;;2.70;;
773;SDS011;370;48.810;9.150;2022-07-06T09:32:12;4.80;;;2.50;;
773;SDS011;370;48.810;9.150;2022-07-06T09:34:47;6.10;;;2.40;;
773;SDS011;370;48.810;9.150;2022-07-06T09:37:14;2.93;;;2.20;;
773;SDS011;370;48.810;9.150;2022-07-06T09:39:41;3.20;;;2.33;;
773;SDS011;370;48.810;9.150;2022-07-06T09:42:09;4.73;;;2.93;;
773;SDS011;370;48.810;9.150;2022-07-06T09:44:37;5.20;;;3.10;;
773;SDS011;370;48.810;9.150;2022-07-06T09:47:05;3.03;;;2.43;;
773;SDS011;370;48.810;9.150;2022-07-06T09:49:35;5.70;;;2.90;;
773;SDS011;370;48.810;9.150;2022-07-06T09:52:03;2.90;;;2.20;;
773;SDS011;370;48.810;9.150;2022-07-06T09:54:32;10.67;;;2.50;;
773;SDS011;370;48.810;9.150;2022-07-06T09:56:59;3.70;;;2.83;;
773;SDS011;370;48.810;9.150;2022-07-06T09:59:26;6.30;;;2.70;;
773;SDS011;370;48.810;9.150;2022-07-06T10:01:55;3.30;;;2.60;;
773;SDS011;370;48.810;9.150;2022-07-06T10:04:22;3.67;;;2.80;;
773;SDS011;370;48.810;9.150;2022-07-06T10:06:52;6.30;;;3.40;;
773;SDS011;370;48.810;9.150;2022-07-06T10:09:22;3.70;;;3.23;;
773;SDS011;370;48.810;9.150;2022-07-06T10:11:51;4.40;;;3.27;;
773;SDS011;370;48.810;9.150;2022-07-06T10:14:21;2.80;;;2.53;;
773;SDS011;370;48.810;9.150;2022-07-06T10:16:49;3.50;;;2.63;;
773;SDS011;370;48.810;9.150;2022-07-06T10:19:17;5.83;;;2.70;;
773;SDS011;370;48.810;9.150;2022-07-06T10:21:45;5.13;;;3.77;;
773;SDS011;370;48.810;9.150;2022-07-06T10:24:14;5.40;;;3.27;;
773;SDS011;370;48.810;9.150;2022-07-06T10:26:42;4.27;;;2.97;;
773;SDS011;370;48.810;9.150;2022-07-06T10:29:09;4.63;;;3.00;;
773;SDS011;370;48.810;9.150;2022-07-06T10:31:37;3.83;;;2.90;;
773;SDS011;370;48.810;9.150;2022-07-06T10:34:07;12.40;;;3.43;;
773;SDS011;370;48.810;9.150;2022-07-06T10:36:37;6.43;;;3.27;;
773;SDS011;370;48.810;9.150;2022-07-06T10:39:06;4.67;;;3.00;;
773;SDS011;370;48.810;9.150;2022-07-06T10:41:48;4.63;;;2.93;;
773;SDS011;370;48.810;9.150;2022-07-06T10:44:16;3.70;;;3.27;;
773;SDS011;370;48.810;9.150;2022-07-06T10:46:51;5.70;;;3.23;;
773;SDS011;370;48.810;9.150;2022-07-06T10:49:19;3.97;;;3.10;;
773;SDS011;370;48.810;9.150;2022-07-06T10:51:47;2.97;;;2.40;;
773;SDS011;370;48.810;9.150;2022-07-06T10:54:15;3.67;;;3.30;;
773;SDS011;370;48.810;9.150;2022-07-06T10:56:44;6.90;;;2.73;;
773;SDS011;370;48.810;9.150;2022-07-06T10:59:13;7.13;;;3.30;;
773;SDS011;370;48.810;9.150;2022-07-06T11:01:40;5.57;;;2.83;;
773;SDS011;370;48.810;9.150;2022-07-06T11:04:30;8.40;;;3.50;;
773;SDS011;370;48.810;9.150;2022-07-06T11:07:06;5.90;;;3.13;;
773;SDS011;370;48.810;9.150;2022-07-06T11:09:34;5.33;;;3.13;;
773;SDS011;370;48.810;9.150;2022-07-06T11:12:11;4.50;;;4.23;;
773;SDS011;370;48.810;9.150;2022-07-06T11:14:41;11.83;;;3.70;;
773;SDS011;370;48.810;9.150;2022-07-06T11:17:09;5.93;;;3.40;;
773;SDS011;370;48.810;9.150;2022-07-06T11:19:37;3.17;;;2.67;;
773;SDS011;370;48.810;9.150;2022-07-06T11:22:05;4.37;;;3.50;;
773;SDS011;370;48.810;9.150;2022-07-06T11:24:37;3.10;;;3.00;;
773;SDS011;370;48.810;9.150;2022-07-06T11:27:06;3.60;;;3.40;;
773;SDS011;370;48.810;9.150;2022-07-06T11:29:34;2.80;;;2.60;;
773;SDS011;370;48.810;9.150;2022-07-06T11:32:05;4.00;;;3.40;;
773;SDS011;370;48.810;9.150;2022-07-06T11:34:35;5.00;;;2.67;;
773;SDS011;370;48.810;9.150;2022-07-06T11:37:03;5.23;;;2.80;;
773;SDS011;370;48.810;9.150;2022-07-06T11:39:33;8.63;;;3.40;;
773;SDS011;370;48.810;9.150;2022-07-06T11:42:01;5.63;;;3.30;;
773;SDS011;370;48.810;9.150;2022-07-06T11:44:29;5.20;;;3.17;;
773;SDS011;370;48.810;9.150;2022-07-06T11:46:57;7.00;;;3.07;;
773;SDS011;370;48.810;9.150;2022-07-06T11:49:28;4.77;;;2.73;;
773;SDS011;370;48.810;9.150;2022-07-06T11:51:56;7.23;;;3.13;;
773;SDS011;370;48.810;9.150;2022-07-06T11:54:23;5.97;;;3.43;;
773;SDS011;370;48.810;9.150;2022-07-06T11:56:52;12.77;;;3.23;;
773;SDS011;370;48.810;9.150;2022-07-06T11:59:20;5.10;;;3.47;;
773;SDS011;370;48.810;9.150;2022-07-06T12:01:48;11.07;;;3.10;;
773;SDS011;370;48.810;9.150;2022-07-06T12:04:15;7.77;;;3.80;;
773;SDS011;370;48.810;9.150;2022-07-06T12:06:44;4.03;;;3.40;;
773;SDS011;370;48.810;9.150;2022-07-06T12:09:11;2.70;;;2.57;;
773;SDS011;370;48.810;9.150;2022-07-06T12:11:39;3.47;;;3.17;;
773;SDS011;370;48.810;9.150;2022-07-06T12:14:12;8.83;;;3.20;;
773;SDS011;370;48.810;9.150;2022-07-06T12:16:40;3.90;;;2.80;;
773;SDS011;370;48.810;9.150;2022-07-06T12:19:07;3.60;;;2.70;;
773;SDS011;370;48.810;9.150;2022-07-06T12:21:36;10.43;;;3.17;;
773;SDS011;370;48.810;9.150;2022-07-06T12:24:16;4.40;;;2.53;;
773;SDS011;370;48.810;9.150;2022-07-06T12:26:44;3.87;;;3.43;;
773;SDS011;370;48.810;9.150;2022-07-06T12:29:11;3.33;;;2.83;;
773;SDS011;370;48.810;9.150;2022-07-06T12:31:39;6.90;;;3.40;;
773;SDS011;370;48.810;9.150;2022-07-06T12:34:12;4.47;;;3.00;;
773;SDS011;370;48.810;9.150;2022-07-06T12:36:44;3.30;;;3.10;;
773;SDS011;370;48.810;9.150;2022-07-06T12:39:13;5.07;;;2.77;;
773;SDS011;370;48.810;9.150;2022-07-06T12:41:46;3.50;;;2.90;;
773;SDS011;370;48.810;9.150;2022-07-06T12:44:15;6.47;;;2.73;;
773;SDS011;370;48.810;9.150;2022-07-06T12:46:43;4.73;;;2.90;;
773;SDS011;370;48.810;9.150;2022-07-06T12:49:12;6.07;;;2.90;;
773;SDS011;370;48.810;9.150;2022-07-06T12:51:50;7.43;;;3.00;;
773;SDS011;370;48.810;9.150;2022-07-06T12:54:23;3.90;;;2.20;;
773;SDS011;370;48.810;9.150;2022-07-06T12:57:01;2.83;;;2.60;;
773;SDS011;370;48.810;9.150;2022-07-06T12:59:35;5.03;;;2.63;;
773;SDS011;370;48.810;9.150;2022-07-06T13:02:03;4.33;;;2.53;;
773;SDS011;370;48.810;9.150;2022-07-06T13:04:31;10.30;;;2.90;;
773;SDS011;370;48.810;9.150;2022-07-06T13:06:58;8.37;;;2.53;;
773;SDS011;370;48.810;9.150;2022-07-06T13:09:27;5.27;;;2.97;;
773;SDS011;370;48.810;9.150;2022-07-06T13:11:55;6.00;;;2.30;;
773;SDS011;370;48.810;9.150;2022-07-06T13:14:22;4.00;;;2.57;;
773;SDS011;370;48.810;9.150;2022-07-06T13:16:49;2.73;;;2.37;;
773;SDS011;370;48.810;9.150;2022-07-06T13:19:16;2.67;;;2.17;;
773;SDS011;370;48.810;9.150;2022-07-06T13:21:43;5.30;;;2.90;;
773;SDS011;370;48.810;9.150;2022-07-06T13:24:10;3.40;;;2.90;;
773;SDS011;370;48.810;9.150;2022-07-06T13:26:39;10.87;;;2.83;;
773;SDS011;370;48.810;9.150;2022-07-06T13:29:06;5.50;;;2.80;;
773;SDS011;370;48.810;9.150;2022-07-06T13:31:35;4.80;;;2.53;;
773;SDS011;370;48.810;9.150;2022-07-06T13:34:03;2.80;;;2.40;;
773;SDS011;370;48.810;9.150;2022-07-06T13:36:30;4.53;;;2.97;;
773;SDS011;370;48.810;9.150;2022-07-06T13:38:58;4.90;;;3.30;;
773;SDS011;370;48.810;9.150;2022-07-06T13:41:25;3.57;;;2.77;;
773;SDS011;370;48.810;9.150;2022-07-06T13:43:53;6.27;;;2.33;;
773;SDS011;370;48.810;9.150;2022-07-06T13:46:20;4.97;;;3.20;;
773;SDS011;370;48.810;9.150;2022-07-06T13:48:47;2.27;;;2.07;;
773;SDS011;370;48.810;9.150;2022-07-06T13:51:14;6.73;;;3.03;;
773;SDS011;370;48.810;9.150;2022-07-06T13:53:41;3.90;;;2.53;;
773;SDS011;370;48.810;9.150;2022-07-06T13:56:08;4.33;;;2.40;;
773;SDS011;370;48.810;9.150;2022-07-06T13:58:35;2.50;;;2.30;;
773;SDS011;370;48.810;9.150;2022-07-06T14:01:04;2.80;;;2.60;;
773;SDS011;370;48.810;9.150;2022-07-06T14:03:32;5.23;;;2.73;;
773;SDS011;370;48.810;9.150;2022-07-06T14:05:59;2.80;;;2.60;;
773;SDS011;370;48.810;9.150;2022-07-06T14:08:27;3.97;;;2.40;;
773;SDS011;370;48.810;9.150;2022-07-06T14:10:55;3.23;;;2.50;;
773;SDS011;370;48.810;9.150;2022-07-06T14:13:22;4.70;;;2.30;;
773;SDS011;370;48.810;9.150;2022-07-06T14:15:49;3.37;;;2.67;;
773;SDS011;370;48.810;9.150;2022-07-06T14:18:18;2.20;;;2.00;;
773;SDS011;370;48.810;9.150;2022-07-06T14:20:45;7.10;;;2.53;;
773;SDS011;370;48.810;9.150;2022-07-06T14:23:13;4.40;;;2.47;;
773;SDS011;370;48.810;9.150;2022-07-06T14:25:41;3.80;;;2.30;;
773;SDS011;370;48.810;9.150;2022-07-06T14:28:09;4.80;;;2.40;;
773;SDS011;370;48.810;9.150;2022-07-06T14:30:38;5.00;;;1.90;;
773;SDS011;370;48.810;9.150;2022-07-06T14:33:06;3.80;;;1.90;;
773;SDS011;370;48.810;9.150;2022-07-06T14:35:36;8.30;;;2.40;;
773;SDS011;370;48.810;9.150;2022-07-06T14:38:05;2.17;;;2.00;;
773;SDS011;370;48.810;9.150;2022-07-06T14:40:32;9.90;;;2.47;;
773;SDS011;370;48.810;9.150;2022-07-06T14:43:00;4.50;;;1.60;;
773;SDS011;370;48.810;9.150;2022-07-06T14:45:28;4.47;;;1.97;;
773;SDS011;370;48.810;9.150;2022-07-06T14:47:55;4.43;;;1.90;;
773;SDS011;370;48.810;9.150;2022-07-06T14:50:22;3.97;;;2.07;;
773;SDS011;370;48.810;9.150;2022-07-06T14:52:51;8.90;;;2.40;;
773;SDS011;370;48.810;9.150;2022-07-06T14:55:18;2.13;;;1.97;;
773;SDS011;370;48.810;9.150;2022-07-06T14:57:46;2.67;;;2.00;;
773;SDS011;370;48.810;9.150;2022-07-06T15:00:13;2.83;;;2.20;;
773;SDS011;370;48.810;9.150;2022-07-06T15:02:41;4.43;;;1.90;;
773;SDS011;370;48.810;9.150;2022-07-06T15:05:09;6.73;;;1.87;;
773;SDS011;370;48.810;9.150;2022-07-06T15:07:36;2.07;;;1.93;;
773;SDS011;370;48.810;9.150;2022-07-06T15:10:05;9.53;;;2.03;;
773;SDS011;370;48.810;9.150;2022-07-06T15:12:33;1.77;;;1.67;;
773;SDS011;370;48.810;9.150;2022-07-06T15:15:00;2.20;;;1.90;;
773;SDS011;370;48.810;9.150;2022-07-06T15:17:27;3.23;;;1.77;;
773;SDS011;370;48.810;9.150;2022-07-06T15:19:56;2.60;;;1.90;;
773;SDS011;370;48.810;9.150;2022-07-06T15:22:23;4.53;;;1.40;;
773;SDS011;370;48.810;9.150;2022-07-06T15:24:50;2.47;;;2.20;;
773;SDS011;370;48.810;9.150;2022-07-06T15:27:18;1.83;;;1.73;;
773;SDS011;370;48.810;9.150;2022-07-06T15:29:45;2.63;;;1.50;;
773;SDS011;370;48.810;9.150;2022-07-06T15:32:12;2.43;;;1.70;;
773;SDS011;370;48.810;9.150;2022-07-06T15:34:39;4.50;;;2.00;;
773;SDS011;370;48.810;9.150;2022-07-06T15:37:06;4.20;;;2.00;;
773;SDS011;370;48.810;9.150;2022-07-06T15:39:33;6.63;;;1.77;;
773;SDS011;370;48.810;9.150;2022-07-06T15:42:00;3.50;;;1.80;;
773;SDS011;370;48.810;9.150;2022-07-06T15:44:28;8.30;;;1.90;;
773;SDS011;370;48.810;9.150;2022-07-06T15:46:55;1.60;;;1.50;;
773;SDS011;370;48.810;9.150;2022-07-06T15:49:21;2.83;;;1.70;;
773;SDS011;370;48.810;9.150;2022-07-06T15:51:48;2.00;;;1.90;;